Красногорский КС

Карта отелей и гостиниц, располагающихся рядом с аэропортом Красногорский КС :

Красногорский КС Челябинская область 54° 35' 48.2388" N, 61° 10' 20.0388" E
Код аэродрома ИКАО: 
HEE5
Код аэродрома RU: 
ХЕЕ5
Координаты: 
N54.59673° E061.17223°
Превышение над уровнем моря : 
0
Основная полоса: 
Курс магнитный: 
Длина основной ВПП: 
10
Ширина основной ВПП: 
10
Покрытие основной ВПП: 
Твёрдое
Тип: 
Вертодром
Освещение ВПП: 
Нет
Класс аэродрома: 
Статус: 
Действующий
Принадлежность: 
ГА
Сайт: 
E-mail аэродрома: 
Страна: 
Россия
Регион: 
Челябинская область
Город: 
Дополнительная информация: 
Оператор: компрессорная станция "Красногорский". Принадлежит компании "ЕкатеринбургТрансГаз".

Найти трансфер

С помощью этой формы Вы можете найти трансфер из аэропорта Красногорский КС в город, аэропорт или вокзал:

Карта места

Javascript is required to view this map.

Погода в аэропортах:

Авиационная погода в Угольном

Регион: 
Погода METAR: 
UHMA 141800Z 00000MPS 1900 -DZ BR BKN004 BKN011 10/09 Q1003 R01/////// NOSIG RMK TDZ R01/00000G01MPS END R01/05001MPS MT OBSC QFE748/0998
Время наблюдения: 
2020-07-14T18:00:00Z
Температура C: 
10.0
Точка росы: 
9.0
Направление ветра: 
0
Скорость ветра: 
0
Метеорологическая видимость: 
1.18
Явления погоды: 
-DZ BR
Условия полета: 
LIFR
Аэропорт подробнее: 

Авиационная погода в Калуге (Грабцево)

Регион: 
Погода METAR: 
UUBC 141730Z 36005MPS 330V030 9000 -SHRA BKN009 OVC020CB 16/15 Q0998 R31/290250 TEMPO 01011G16MPS 1200 SHRA BKN005CB RMK QFE732/0976
Время наблюдения: 
2020-07-14T17:30:00Z
Температура C: 
16.0
Точка росы: 
15.0
Направление ветра: 
360
Скорость ветра: 
10
Метеорологическая видимость: 
5.59
Явления погоды: 
-SHRA
Условия полета: 
IFR

Авиационная погода в Череповце

Регион: 
Погода METAR: 
ULWC 141730Z 10001MPS 9999 -SHRA SCT020CB 16/15 Q1011 R03/010060 NOSIG RMK QFE748/0998
Время наблюдения: 
2020-07-14T17:30:00Z
Температура C: 
16.0
Точка росы: 
15.0
Направление ветра: 
100
Скорость ветра: 
2
Метеорологическая видимость: 
6.21
Явления погоды: 
-SHRA
Условия полета: 
VFR
Аэропорт подробнее: 

Авиационная погода в Ульяновске

Регион: 
Погода METAR: 
UWLW 141800Z 11002MPS 8000 TS BKN040CB 29/16 Q1008 R02/CLRD60 NOSIG RMK QFE749
Время наблюдения: 
2020-07-14T18:00:00Z
Температура C: 
29.0
Точка росы: 
16.0
Направление ветра: 
110
Скорость ветра: 
4
Метеорологическая видимость: 
4.97
Явления погоды: 
TS
Условия полета: 
MVFR